Terminal Aerodrome Forecast
Issued by NWS North Platte, NE

Home | Current Version | Previous Version | Text Only | Print | Product List | Glossary Off
Versions: 1 2 3 4 5 6 7 8 9 10 11 12 13

149
FTUS43 KLBF 012320
TAFVTN
TAF
KVTN 012320Z 0200/0224 35013KT P6SM BKN050
     FM020200 VRB06KT P6SM SKC
     FM021500 28010KT P6SM SCT250
     FM021900 30009KT P6SM BKN050=

USA.gov is the U.S. government's official web portal to all federal, state and local government web resources and services.